Time;durP1;ratioP1;P1;durP2;ratioP2;P2;SDS_P1;SDS_P2;PMS_P1;PMS_P2;Temp;Humidity;BMP_temperature;BMP_pressure;BME280_temperature;BME280_humidity;BME280_pressure;Samples;Min_cycle;Max_cycle;Signal;HPM_P1;HPM_P2
2024/02/04 00:02:07;;;;;;;8.45;3.80;;;;;;;;;;5034050;28;20033;-67
2024/02/04 00:04:34;;;;;;;6.03;3.22;;;;;;;;;;5033641;28;20029;-67
2024/02/04 00:07:00;;;;;;;5.63;2.75;;;;;;;;;;5040647;28;20048;-67
2024/02/04 00:09:28;;;;;;;7.55;3.70;;;;;;;;;;5022867;28;20067;-68
2024/02/04 00:11:55;;;;;;;4.05;2.88;;;;;;;;;;5027429;28;20423;-67
2024/02/04 00:14:21;;;;;;;3.63;3.13;;;;;;;;;;5033644;28;20381;-68
2024/02/04 00:16:47;;;;;;;4.28;3.40;;;;;;;;;;5021974;28;20029;-67
2024/02/04 00:19:16;;;;;;;3.30;3.00;;;;;;;;;;5041664;28;20484;-68
2024/02/04 00:21:42;;;;;;;6.15;3.67;;;;;;;;;;5040446;28;20307;-67
2024/02/04 00:24:08;;;;;;;6.00;3.55;;;;;;;;;;5029486;28;20116;-67
2024/02/04 00:26:38;;;;;;;5.35;3.20;;;;;;;;;;5025410;28;20037;-67
2024/02/04 00:29:04;;;;;;;4.20;2.90;;;;;;;;;;5014989;28;20680;-68
2024/02/04 00:31:30;;;;;;;3.33;2.92;;;;;;;;;;5035705;28;20372;-67
2024/02/04 00:33:57;;;;;;;3.88;2.60;;;;;;;;;;5024288;28;20124;-67
2024/02/04 00:36:23;;;;;;;4.03;3.05;;;;;;;;;;5028872;28;20021;-67
2024/02/04 00:38:49;;;;;;;5.93;3.33;;;;;;;;;;5044406;28;20029;-67
2024/02/04 00:41:15;;;;;;;4.50;3.33;;;;;;;;;;5042508;28;20040;-67
2024/02/04 00:43:45;;;;;;;4.07;3.03;;;;;;;;;;5033880;28;20021;-67
2024/02/04 00:46:11;;;;;;;4.10;2.78;;;;;;;;;;5022279;28;20040;-66
2024/02/04 00:48:37;;;;;;;4.65;3.05;;;;;;;;;;5041227;28;20033;-67
2024/02/04 00:51:04;;;;;;;5.80;3.78;;;;;;;;;;5035865;28;20101;-70
2024/02/04 00:53:33;;;;;;;3.65;3.17;;;;;;;;;;5038042;28;20025;-67
2024/02/04 00:56:06;;;;;;;5.25;3.13;;;;;;;;;;5036207;28;20527;-67
2024/02/04 00:58:32;;;;;;;5.70;3.13;;;;;;;;;;5026771;28;20561;-68
2024/02/04 01:00:58;;;;;;;4.38;3.25;;;;;;;;;;5026975;28;20071;-67
2024/02/04 01:03:24;;;;;;;3.85;2.75;;;;;;;;;;5041172;28;20548;-68
2024/02/04 01:05:51;;;;;;;4.57;2.97;;;;;;;;;;5037306;28;20039;-67
2024/02/04 01:08:17;;;;;;;4.90;2.90;;;;;;;;;;5041755;28;20349;-68
2024/02/04 01:10:43;;;;;;;4.03;2.70;;;;;;;;;;5041673;28;20246;-67
2024/02/04 01:13:10;;;;;;;3.22;2.92;;;;;;;;;;5025236;28;20088;-67
2024/02/04 01:15:36;;;;;;;3.20;2.35;;;;;;;;;;5020722;28;20389;-68
2024/02/04 01:18:02;;;;;;;3.47;2.55;;;;;;;;;;5028376;28;20063;-67
2024/02/04 01:20:28;;;;;;;4.78;2.70;;;;;;;;;;5022641;28;20116;-67
2024/02/04 01:22:55;;;;;;;4.13;2.45;;;;;;;;;;5025311;28;20040;-67
2024/02/04 01:25:21;;;;;;;4.57;2.83;;;;;;;;;;5032064;28;20086;-67
2024/02/04 01:27:55;;;;;;;3.33;2.72;;;;;;;;;;5035728;28;20202;-68
2024/02/04 01:30:21;;;;;;;4.10;3.00;;;;;;;;;;5029743;28;20477;-68
2024/02/04 01:32:47;;;;;;;3.53;2.78;;;;;;;;;;5025096;28;20030;-69
2024/02/04 01:35:15;;;;;;;4.82;3.00;;;;;;;;;;5023694;28;20039;-68
2024/02/04 01:37:43;;;;;;;4.47;3.17;;;;;;;;;;5034325;28;20047;-67
2024/02/04 01:40:09;;;;;;;4.93;2.92;;;;;;;;;;5029781;28;20104;-67
2024/02/04 01:42:36;;;;;;;4.25;3.10;;;;;;;;;;5028855;28;20496;-67
2024/02/04 01:45:02;;;;;;;4.20;2.50;;;;;;;;;;5042923;28;20056;-67
2024/02/04 01:47:28;;;;;;;3.35;2.83;;;;;;;;;;5045256;28;20095;-67
2024/02/04 01:49:54;;;;;;;3.78;3.10;;;;;;;;;;5047645;28;20037;-67
2024/02/04 01:52:21;;;;;;;3.75;3.00;;;;;;;;;;5035624;28;20033;-67
2024/02/04 01:54:47;;;;;;;4.07;2.88;;;;;;;;;;5029642;28;20149;-67
2024/02/04 01:57:14;;;;;;;5.15;2.75;;;;;;;;;;5040872;28;20218;-68
2024/02/04 01:59:40;;;;;;;4.88;3.03;;;;;;;;;;5026206;28;20087;-67
2024/02/04 02:02:10;;;;;;;3.05;2.72;;;;;;;;;;5017691;28;20116;-67
2024/02/04 02:04:36;;;;;;;3.38;2.83;;;;;;;;;;5042042;28;20622;-66
2024/02/04 02:07:02;;;;;;;4.53;3.03;;;;;;;;;;5017942;28;20128;-67
2024/02/04 02:09:29;;;;;;;2.67;2.25;;;;;;;;;;5039392;28;20033;-67
2024/02/04 02:12:10;;;;;;;3.65;2.40;;;;;;;;;;5037551;28;20028;-67
2024/02/04 02:14:38;;;;;;;2.85;2.35;;;;;;;;;;5028055;28;20025;-67
2024/02/04 02:17:07;;;;;;;3.97;2.50;;;;;;;;;;5034742;28;20443;-67
2024/02/04 02:19:46;;;;;;;2.88;2.47;;;;;;;;;;5019363;28;20028;-67
2024/02/04 02:22:30;;;;;;;3.28;2.03;;;;;;;;;;5021768;28;20207;-67
2024/02/04 02:25:00;;;;;;;2.20;2.00;;;;;;;;;;5024158;28;20074;-74
2024/02/04 02:27:26;;;;;;;3.67;2.25;;;;;;;;;;5041354;28;20037;-75
2024/02/04 02:29:53;;;;;;;2.95;2.28;;;;;;;;;;5048515;28;20021;-74
2024/02/04 02:32:20;;;;;;;2.50;2.30;;;;;;;;;;5028397;28;20119;-74
2024/02/04 02:34:46;;;;;;;2.38;2.00;;;;;;;;;;5049719;28;20071;-75
2024/02/04 02:37:19;;;;;;;4.03;1.88;;;;;;;;;;5050468;28;20021;-75
2024/02/04 02:40:06;;;;;;;2.38;2.15;;;;;;;;;;5036880;28;20128;-74
2024/02/04 02:42:33;;;;;;;2.50;2.30;;;;;;;;;;5047069;28;20033;-74
2024/02/04 02:45:00;;;;;;;2.22;2.03;;;;;;;;;;5046657;28;20086;-74
2024/02/04 02:47:27;;;;;;;3.47;2.65;;;;;;;;;;5042600;28;20037;-75
2024/02/04 02:49:54;;;;;;;2.50;2.05;;;;;;;;;;5039731;28;20385;-75
2024/02/04 02:52:22;;;;;;;1.75;1.65;;;;;;;;;;5026665;28;20608;-74
2024/02/04 02:54:48;;;;;;;2.08;1.83;;;;;;;;;;5041852;28;20057;-74
2024/02/04 02:57:15;;;;;;;2.22;2.03;;;;;;;;;;5027305;28;20435;-74
2024/02/04 02:59:41;;;;;;;2.30;1.77;;;;;;;;;;5029881;28;20029;-74
2024/02/04 03:02:08;;;;;;;2.22;1.80;;;;;;;;;;5030333;28;20056;-74
2024/02/04 03:04:34;;;;;;;2.58;2.08;;;;;;;;;;5038426;28;20087;-75
2024/02/04 03:07:00;;;;;;;2.60;2.40;;;;;;;;;;5038044;28;20055;-75
2024/02/04 03:09:26;;;;;;;1.58;1.48;;;;;;;;;;5046921;28;20487;-75
2024/02/04 03:11:52;;;;;;;4.35;3.00;;;;;;;;;;5026012;28;20021;-74
2024/02/04 03:14:20;;;;;;;2.20;1.98;;;;;;;;;;5044871;28;20032;-75
2024/02/04 03:16:47;;;;;;;1.80;1.70;;;;;;;;;;5027064;28;20053;-75
2024/02/04 03:19:13;;;;;;;1.30;1.30;;;;;;;;;;5040150;28;20099;-75
2024/02/04 03:21:39;;;;;;;2.42;2.20;;;;;;;;;;5030317;28;20308;-76
2024/02/04 03:24:06;;;;;;;1.60;1.50;;;;;;;;;;5028106;28;20639;-74
2024/02/04 03:26:32;;;;;;;1.63;1.52;;;;;;;;;;5038469;28;20111;-74
2024/02/04 03:28:58;;;;;;;1.88;1.73;;;;;;;;;;5045827;28;20036;-74
2024/02/04 03:31:24;;;;;;;1.40;1.30;;;;;;;;;;5051136;28;20078;-74
2024/02/04 03:33:51;;;;;;;2.03;1.73;;;;;;;;;;5046058;28;20037;-74
2024/02/04 03:36:19;;;;;;;1.67;1.58;;;;;;;;;;5042635;28;20033;-74
2024/02/04 03:38:45;;;;;;;1.10;1.10;;;;;;;;;;5048504;28;20029;-74
2024/02/04 03:41:12;;;;;;;1.30;1.30;;;;;;;;;;5027799;28;20148;-74
2024/02/04 03:43:38;;;;;;;1.15;1.15;;;;;;;;;;5037869;28;20029;-75
2024/02/04 03:46:04;;;;;;;1.20;1.20;;;;;;;;;;5033549;28;20037;-75
2024/02/04 03:48:30;;;;;;;1.20;1.20;;;;;;;;;;5045669;28;20095;-74
2024/02/04 03:50:56;;;;;;;1.25;1.25;;;;;;;;;;5043008;28;20489;-74
2024/02/04 03:53:23;;;;;;;1.02;1.02;;;;;;;;;;5043960;28;20046;-74
2024/02/04 03:55:49;;;;;;;1.08;1.08;;;;;;;;;;5046178;28;20024;-74
2024/02/04 03:58:36;;;;;;;1.20;1.20;;;;;;;;;;5041456;28;20032;-74
2024/02/04 04:01:02;;;;;;;1.27;1.27;;;;;;;;;;5037833;28;20053;-74
2024/02/04 04:03:28;;;;;;;1.50;1.20;;;;;;;;;;5042531;28;20032;-74
2024/02/04 04:05:55;;;;;;;1.55;1.42;;;;;;;;;;5030568;28;20119;-74
2024/02/04 04:08:21;;;;;;;1.60;1.50;;;;;;;;;;5047571;28;20060;-75
2024/02/04 04:10:47;;;;;;;1.80;1.50;;;;;;;;;;5031281;28;20060;-74
2024/02/04 04:13:14;;;;;;;1.58;1.48;;;;;;;;;;5031701;28;20025;-75
2024/02/04 04:15:42;;;;;;;1.60;1.50;;;;;;;;;;5053556;28;20471;-74
2024/02/04 04:18:10;;;;;;;1.50;1.40;;;;;;;;;;5052286;28;20109;-74
2024/02/04 04:20:37;;;;;;;1.60;1.50;;;;;;;;;;5050019;28;20084;-75
2024/02/04 04:23:03;;;;;;;1.33;1.30;;;;;;;;;;5045615;28;20033;-74
2024/02/04 04:25:29;;;;;;;1.42;1.33;;;;;;;;;;5038947;28;20081;-74
2024/02/04 04:27:58;;;;;;;1.55;1.45;;;;;;;;;;5047535;28;20926;-74
2024/02/04 04:30:24;;;;;;;1.42;1.33;;;;;;;;;;5031557;28;20036;-75
2024/02/04 04:32:50;;;;;;;2.45;1.40;;;;;;;;;;5026172;28;20025;-75
2024/02/04 04:35:16;;;;;;;1.60;1.50;;;;;;;;;;5038266;28;20029;-75
2024/02/04 04:37:43;;;;;;;1.67;1.40;;;;;;;;;;5036286;28;20521;-74
2024/02/04 04:40:09;;;;;;;1.45;1.38;;;;;;;;;;5042853;28;20017;-74
2024/02/04 04:42:36;;;;;;;1.48;1.20;;;;;;;;;;5045891;28;20033;-75
2024/02/04 04:45:02;;;;;;;1.60;1.50;;;;;;;;;;5048982;28;20768;-74
2024/02/04 04:47:28;;;;;;;1.10;1.10;;;;;;;;;;5056442;28;20469;-74
2024/02/04 04:49:54;;;;;;;1.30;1.30;;;;;;;;;;5040741;28;20080;-76
2024/02/04 04:52:21;;;;;;;1.50;1.40;;;;;;;;;;5032239;28;20038;-75
2024/02/04 04:54:48;;;;;;;1.30;1.30;;;;;;;;;;5036697;28;20033;-74
2024/02/04 04:57:15;;;;;;;1.30;1.20;;;;;;;;;;5040064;28;20100;-75
2024/02/04 04:59:41;;;;;;;1.63;1.48;;;;;;;;;;5034123;28;20017;-74
2024/02/04 05:02:07;;;;;;;1.15;1.15;;;;;;;;;;5023599;28;20078;-74
2024/02/04 05:04:33;;;;;;;1.75;1.33;;;;;;;;;;5015818;28;20036;-74
2024/02/04 05:06:59;;;;;;;1.17;1.17;;;;;;;;;;5037350;28;20053;-75
2024/02/04 05:09:26;;;;;;;1.85;1.35;;;;;;;;;;5032426;28;20112;-75
2024/02/04 05:11:52;;;;;;;0.98;0.98;;;;;;;;;;5030452;28;20123;-75
2024/02/04 05:14:18;;;;;;;1.10;1.10;;;;;;;;;;5041125;28;20100;-75
2024/02/04 05:16:45;;;;;;;1.20;1.20;;;;;;;;;;5049394;28;20029;-74
2024/02/04 05:19:20;;;;;;;1.80;1.20;;;;;;;;;;5039634;28;20464;-74
2024/02/04 05:21:46;;;;;;;1.13;1.13;;;;;;;;;;5031717;28;20033;-74
2024/02/04 05:24:12;;;;;;;1.13;1.13;;;;;;;;;;5041149;28;20039;-74
2024/02/04 05:26:38;;;;;;;1.00;1.00;;;;;;;;;;5048709;28;20495;-74
2024/02/04 05:29:05;;;;;;;1.10;1.10;;;;;;;;;;5049536;28;20094;-74
2024/02/04 05:31:31;;;;;;;1.00;1.00;;;;;;;;;;5034572;28;20036;-74
2024/02/04 05:33:57;;;;;;;1.20;1.20;;;;;;;;;;5048866;28;20313;-74
2024/02/04 05:36:23;;;;;;;1.10;1.10;;;;;;;;;;5038527;28;20121;-75
2024/02/04 05:38:50;;;;;;;1.00;1.00;;;;;;;;;;5033539;28;20025;-74
2024/02/04 05:41:16;;;;;;;1.10;1.10;;;;;;;;;;5044500;28;20056;-74
2024/02/04 05:43:42;;;;;;;1.00;1.00;;;;;;;;;;5048082;28;20656;-75
2024/02/04 05:46:08;;;;;;;1.10;1.10;;;;;;;;;;5045997;28;20447;-74
2024/02/04 05:48:34;;;;;;;1.13;1.13;;;;;;;;;;5034979;28;20190;-74
2024/02/04 05:51:00;;;;;;;1.10;1.10;;;;;;;;;;5037766;28;20018;-74
2024/02/04 05:53:27;;;;;;;1.27;1.17;;;;;;;;;;5028347;28;20491;-73
2024/02/04 05:55:53;;;;;;;1.20;1.20;;;;;;;;;;5036162;28;20056;-73
2024/02/04 05:58:19;;;;;;;1.20;1.08;;;;;;;;;;5035347;28;20472;-73
2024/02/04 06:00:45;;;;;;;1.10;1.10;;;;;;;;;;5041990;28;20036;-74
2024/02/04 06:03:14;;;;;;;1.58;1.30;;;;;;;;;;5041306;28;20028;-74
2024/02/04 06:05:40;;;;;;;1.20;1.20;;;;;;;;;;5035181;28;20037;-74
2024/02/04 06:08:07;;;;;;;1.02;1.02;;;;;;;;;;5032550;28;20061;-74
2024/02/04 06:10:33;;;;;;;0.90;0.90;;;;;;;;;;5044958;28;20399;-74
2024/02/04 06:12:59;;;;;;;1.02;1.02;;;;;;;;;;5042412;28;20064;-75
2024/02/04 06:15:25;;;;;;;1.10;1.10;;;;;;;;;;5022803;28;20017;-73
2024/02/04 06:17:52;;;;;;;1.10;1.10;;;;;;;;;;5038865;28;20027;-74
2024/02/04 06:20:21;;;;;;;2.95;1.23;;;;;;;;;;5037189;28;20059;-74
2024/02/04 06:22:51;;;;;;;1.20;1.20;;;;;;;;;;5030369;28;20288;-74
2024/02/04 06:25:17;;;;;;;1.10;1.10;;;;;;;;;;5039133;28;20037;-74
2024/02/04 06:27:44;;;;;;;1.05;1.05;;;;;;;;;;5040908;28;20140;-74
2024/02/04 06:30:13;;;;;;;1.45;1.20;;;;;;;;;;5044184;28;20036;-74
2024/02/04 06:32:39;;;;;;;1.15;1.15;;;;;;;;;;5047264;28;20499;-74
2024/02/04 06:35:08;;;;;;;1.08;1.08;;;;;;;;;;5041844;28;20029;-74
2024/02/04 06:37:35;;;;;;;1.42;1.33;;;;;;;;;;5039267;28;20036;-74
2024/02/04 06:40:02;;;;;;;1.48;1.38;;;;;;;;;;5032820;28;20098;-74
2024/02/04 06:42:28;;;;;;;1.08;1.00;;;;;;;;;;5045135;28;20072;-73
2024/02/04 06:44:54;;;;;;;1.30;1.30;;;;;;;;;;5048580;28;20032;-76
2024/02/04 06:47:21;;;;;;;2.03;1.30;;;;;;;;;;5031096;28;20523;-74
2024/02/04 06:49:47;;;;;;;1.10;1.10;;;;;;;;;;5040917;28;20033;-74
2024/02/04 06:52:13;;;;;;;2.03;1.42;;;;;;;;;;5041468;28;20537;-75
2024/02/04 06:54:39;;;;;;;2.33;1.52;;;;;;;;;;5041238;28;20506;-74
2024/02/04 06:57:06;;;;;;;2.42;1.40;;;;;;;;;;5039249;28;20029;-74
2024/02/04 06:59:32;;;;;;;3.30;1.58;;;;;;;;;;5028523;28;20030;-74
2024/02/04 07:01:58;;;;;;;3.97;1.42;;;;;;;;;;5039689;28;20493;-74
2024/02/04 07:04:24;;;;;;;1.50;1.40;;;;;;;;;;5040589;28;20033;-74
2024/02/04 07:06:51;;;;;;;2.70;1.67;;;;;;;;;;5034438;28;20038;-73
2024/02/04 07:09:17;;;;;;;4.22;1.48;;;;;;;;;;5044780;28;20033;-74
2024/02/04 07:11:44;;;;;;;1.48;1.30;;;;;;;;;;5035075;28;20501;-67
2024/02/04 07:14:10;;;;;;;1.60;1.50;;;;;;;;;;5039773;28;20028;-66
2024/02/04 07:16:36;;;;;;;7.28;1.60;;;;;;;;;;5039507;28;20064;-66
2024/02/04 07:19:02;;;;;;;4.53;1.88;;;;;;;;;;5024776;28;20025;-66
2024/02/04 07:21:29;;;;;;;1.30;1.20;;;;;;;;;;5036618;28;20555;-66
2024/02/04 07:23:55;;;;;;;1.48;1.40;;;;;;;;;;5038638;28;20045;-66
2024/02/04 07:26:21;;;;;;;4.25;1.80;;;;;;;;;;5043040;28;20081;-66
2024/02/04 07:28:47;;;;;;;2.85;1.60;;;;;;;;;;5038757;28;20040;-66
2024/02/04 07:31:14;;;;;;;2.55;1.77;;;;;;;;;;5038436;28;20488;-65
2024/02/04 07:33:40;;;;;;;1.63;1.48;;;;;;;;;;5041377;28;20116;-66
2024/02/04 07:36:09;;;;;;;4.65;1.70;;;;;;;;;;5039677;28;20447;-66
2024/02/04 07:38:35;;;;;;;1.85;1.70;;;;;;;;;;5024071;28;20508;-66
2024/02/04 07:41:01;;;;;;;1.27;1.27;;;;;;;;;;5032439;28;20033;-66
2024/02/04 07:43:27;;;;;;;2.80;1.50;;;;;;;;;;5027898;28;20040;-67
2024/02/04 07:45:54;;;;;;;1.48;1.45;;;;;;;;;;5027808;28;20059;-65
2024/02/04 07:48:20;;;;;;;2.10;1.73;;;;;;;;;;5021626;28;20029;-66
2024/02/04 07:50:47;;;;;;;2.40;1.45;;;;;;;;;;5027430;28;20029;-68
2024/02/04 07:53:13;;;;;;;3.75;1.55;;;;;;;;;;5031578;28;20032;-70
2024/02/04 07:55:39;;;;;;;1.58;1.48;;;;;;;;;;5039407;28;20260;-66
2024/02/04 07:58:13;;;;;;;1.85;1.67;;;;;;;;;;5041510;28;20036;-66
2024/02/04 08:00:39;;;;;;;2.63;1.40;;;;;;;;;;5032084;28;20044;-66
2024/02/04 08:03:05;;;;;;;3.10;2.35;;;;;;;;;;5035092;28;20034;-67
2024/02/04 08:05:32;;;;;;;1.30;1.30;;;;;;;;;;5020535;28;20021;-66
2024/02/04 08:07:59;;;;;;;6.20;1.63;;;;;;;;;;5019582;28;20451;-66
2024/02/04 08:10:25;;;;;;;1.60;1.50;;;;;;;;;;5049555;28;20021;-66
2024/02/04 08:12:53;;;;;;;1.30;1.30;;;;;;;;;;5021867;28;20350;-66
2024/02/04 08:15:19;;;;;;;2.22;1.55;;;;;;;;;;5031217;28;20436;-66
2024/02/04 08:17:45;;;;;;;1.55;1.45;;;;;;;;;;5036847;28;20056;-67
2024/02/04 08:20:12;;;;;;;1.52;1.42;;;;;;;;;;5027957;28;20079;-68
2024/02/04 08:22:39;;;;;;;2.40;1.20;;;;;;;;;;5027079;28;20203;-66
2024/02/04 08:25:10;;;;;;;3.80;1.50;;;;;;;;;;5037800;28;20583;-66
2024/02/04 08:27:42;;;;;;;1.42;1.33;;;;;;;;;;5019436;28;20045;-67
2024/02/04 08:30:11;;;;;;;2.45;1.30;;;;;;;;;;5036406;28;20037;-67
2024/02/04 08:32:37;;;;;;;1.25;1.25;;;;;;;;;;5036792;28;20041;-67
2024/02/04 08:35:03;;;;;;;1.77;1.27;;;;;;;;;;5038839;28;20106;-68
2024/02/04 08:37:29;;;;;;;1.70;1.60;;;;;;;;;;5034094;28;20037;-67
2024/02/04 08:39:56;;;;;;;2.72;1.20;;;;;;;;;;5031286;28;20166;-68
2024/02/04 08:42:22;;;;;;;1.00;1.00;;;;;;;;;;5035128;28;20317;-66
2024/02/04 08:44:48;;;;;;;1.17;1.17;;;;;;;;;;5040051;28;20037;-67
2024/02/04 08:47:16;;;;;;;1.58;1.48;;;;;;;;;;5034994;28;20644;-66
2024/02/04 08:49:43;;;;;;;3.67;1.73;;;;;;;;;;5040430;28;20032;-67
2024/02/04 08:52:10;;;;;;;5.68;1.52;;;;;;;;;;5023666;28;20443;-67
2024/02/04 08:54:36;;;;;;;0.90;0.90;;;;;;;;;;5025799;28;20029;-67
2024/02/04 08:57:03;;;;;;;2.95;1.58;;;;;;;;;;5040260;28;20300;-67
2024/02/04 08:59:29;;;;;;;1.70;1.40;;;;;;;;;;5031137;28;20025;-67
2024/02/04 09:01:55;;;;;;;1.00;1.00;;;;;;;;;;5037546;28;20033;-69
2024/02/04 09:04:21;;;;;;;1.00;1.00;;;;;;;;;;5008580;28;20065;-67
2024/02/04 09:06:47;;;;;;;1.13;1.10;;;;;;;;;;5036417;28;20049;-66
2024/02/04 09:09:14;;;;;;;1.23;1.20;;;;;;;;;;5028579;28;20039;-67
2024/02/04 09:11:40;;;;;;;1.20;1.20;;;;;;;;;;5046667;28;20942;-69
2024/02/04 09:14:06;;;;;;;1.20;1.10;;;;;;;;;;5049089;28;20021;-66
2024/02/04 09:16:33;;;;;;;1.30;1.20;;;;;;;;;;5038262;28;20500;-68
2024/02/04 09:18:59;;;;;;;1.35;1.00;;;;;;;;;;5017882;28;20124;-68
2024/02/04 09:21:26;;;;;;;1.20;1.13;;;;;;;;;;5017910;28;20117;-68
2024/02/04 09:23:53;;;;;;;1.10;1.00;;;;;;;;;;5045925;28;20025;-66
2024/02/04 09:26:20;;;;;;;1.40;1.30;;;;;;;;;;5019454;28;20044;-68
2024/02/04 09:28:46;;;;;;;1.35;1.25;;;;;;;;;;5035570;28;20271;-74
2024/02/04 09:31:13;;;;;;;1.40;1.40;;;;;;;;;;5025136;28;20375;-74
2024/02/04 09:33:40;;;;;;;1.40;1.30;;;;;;;;;;5033303;28;20029;-75
2024/02/04 09:36:06;;;;;;;1.50;1.40;;;;;;;;;;5030906;28;20026;-77
2024/02/04 09:38:33;;;;;;;3.67;1.60;;;;;;;;;;5043428;28;20032;-79
2024/02/04 09:41:00;;;;;;;1.50;1.40;;;;;;;;;;5053252;28;20028;-77
2024/02/04 09:43:26;;;;;;;4.80;1.58;;;;;;;;;;5030094;28;20033;-77
2024/02/04 09:45:53;;;;;;;4.35;1.83;;;;;;;;;;5036871;28;20040;-76
2024/02/04 09:48:20;;;;;;;5.22;2.58;;;;;;;;;;5041836;28;20080;-77
2024/02/04 09:50:46;;;;;;;4.07;2.00;;;;;;;;;;5046574;28;20480;-76
2024/02/04 09:53:15;;;;;;;2.90;1.77;;;;;;;;;;5050685;28;20021;-76
2024/02/04 09:55:42;;;;;;;1.45;1.30;;;;;;;;;;5055296;28;20407;-76
2024/02/04 09:58:08;;;;;;;4.82;2.22;;;;;;;;;;5049166;28;20071;-77
2024/02/04 10:00:34;;;;;;;4.43;1.90;;;;;;;;;;5052383;28;20028;-76
2024/02/04 10:03:01;;;;;;;2.50;2.03;;;;;;;;;;5043303;28;20472;-79
2024/02/04 10:05:27;;;;;;;2.15;1.88;;;;;;;;;;5053763;28;20477;-78
2024/02/04 10:07:54;;;;;;;3.85;1.80;;;;;;;;;;5052433;28;20098;-77
2024/02/04 10:10:20;;;;;;;1.52;1.42;;;;;;;;;;5046992;28;20090;-77
2024/02/04 10:12:46;;;;;;;2.80;1.40;;;;;;;;;;5048508;28;20036;-77
2024/02/04 10:15:13;;;;;;;3.13;1.60;;;;;;;;;;5038578;28;20777;-77
2024/02/04 10:17:43;;;;;;;2.88;2.00;;;;;;;;;;5034708;28;20211;-77
2024/02/04 10:20:12;;;;;;;2.97;1.58;;;;;;;;;;5025014;28;20501;-76
2024/02/04 10:22:39;;;;;;;4.72;1.80;;;;;;;;;;5044044;28;20033;-77
2024/02/04 10:25:09;;;;;;;4.82;2.10;;;;;;;;;;5050734;28;20074;-76
2024/02/04 10:27:36;;;;;;;2.75;2.00;;;;;;;;;;5050108;28;20543;-75
2024/02/04 10:30:02;;;;;;;2.13;1.70;;;;;;;;;;5027750;28;20026;-76
2024/02/04 10:32:29;;;;;;;2.53;2.30;;;;;;;;;;5025490;28;20037;-76
2024/02/04 10:34:55;;;;;;;2.35;2.15;;;;;;;;;;5024883;28;20459;-76
2024/02/04 10:37:21;;;;;;;4.35;2.10;;;;;;;;;;5037935;28;20067;-76
2024/02/04 10:39:47;;;;;;;3.30;1.95;;;;;;;;;;5049432;28;20029;-77
2024/02/04 10:42:14;;;;;;;3.20;2.22;;;;;;;;;;5052825;28;20091;-76
2024/02/04 10:44:43;;;;;;;7.75;2.30;;;;;;;;;;5030031;28;20072;-77
2024/02/04 10:47:11;;;;;;;2.70;2.20;;;;;;;;;;5039288;28;20079;-77
2024/02/04 10:49:38;;;;;;;5.78;2.33;;;;;;;;;;5032723;28;20660;-77
2024/02/04 10:52:10;;;;;;;5.32;1.67;;;;;;;;;;5027714;28;20029;-78
2024/02/04 10:54:39;;;;;;;9.88;2.50;;;;;;;;;;5047477;28;20021;-76
2024/02/04 10:57:08;;;;;;;6.32;1.60;;;;;;;;;;5030531;28;20113;-77
2024/02/04 10:59:34;;;;;;;4.13;2.33;;;;;;;;;;5036269;28;20033;-76
2024/02/04 11:02:01;;;;;;;6.20;2.40;;;;;;;;;;5048932;28;20033;-77
2024/02/04 11:04:29;;;;;;;5.60;3.97;;;;;;;;;;5019994;28;20480;-77
2024/02/04 11:06:56;;;;;;;4.30;1.65;;;;;;;;;;5042535;28;20037;-77
2024/02/04 11:09:23;;;;;;;7.47;4.05;;;;;;;;;;5044517;28;20059;-77
2024/02/04 11:11:49;;;;;;;3.90;2.47;;;;;;;;;;5046082;28;20053;-77
2024/02/04 11:14:18;;;;;;;9.80;2.72;;;;;;;;;;5047504;28;20050;-78
2024/02/04 11:16:53;;;;;;;5.00;2.20;;;;;;;;;;5035058;28;20021;-77
2024/02/04 11:19:31;;;;;;;8.38;2.70;;;;;;;;;;5039770;28;20162;-77
2024/02/04 11:22:19;;;;;;;5.10;2.20;;;;;;;;;;5034915;28;20045;-77
2024/02/04 11:25:00;;;;;;;8.18;2.60;;;;;;;;;;5049045;28;20052;-76
2024/02/04 11:27:27;;;;;;;5.88;2.53;;;;;;;;;;5052509;28;20140;-77
2024/02/04 11:29:53;;;;;;;7.05;3.80;;;;;;;;;;5037825;28;20050;-77
2024/02/04 11:32:20;;;;;;;6.82;2.83;;;;;;;;;;5033505;28;20024;-76
2024/02/04 11:34:46;;;;;;;3.72;2.42;;;;;;;;;;5038673;28;20036;-75
2024/02/04 11:37:19;;;;;;;9.45;3.20;;;;;;;;;;5043693;28;20021;-77
2024/02/04 11:39:58;;;;;;;9.05;3.03;;;;;;;;;;5043393;28;20423;-77
2024/02/04 11:42:25;;;;;;;11.43;3.60;;;;;;;;;;5030470;28;20149;-77
2024/02/04 11:44:51;;;;;;;4.40;2.88;;;;;;;;;;5014471;28;20029;-76
2024/02/04 11:47:24;;;;;;;15.88;3.88;;;;;;;;;;5013189;28;20128;-76
2024/02/04 11:49:57;;;;;;;8.13;3.00;;;;;;;;;;5046216;28;20021;-77
2024/02/04 11:52:24;;;;;;;10.60;3.53;;;;;;;;;;5015731;28;20033;-78
2024/02/04 11:54:50;;;;;;;5.03;2.58;;;;;;;;;;5034924;28;20124;-77
2024/02/04 11:57:17;;;;;;;11.30;3.92;;;;;;;;;;5042079;28;20062;-77
2024/02/04 11:59:44;;;;;;;5.78;2.70;;;;;;;;;;5038998;28;20025;-77
2024/02/04 12:02:12;;;;;;;11.48;3.70;;;;;;;;;;5035920;28;20029;-77
2024/02/04 12:04:39;;;;;;;7.97;3.22;;;;;;;;;;5035869;28;20049;-77
2024/02/04 12:07:06;;;;;;;7.25;3.08;;;;;;;;;;5005919;28;20044;-77
2024/02/04 12:09:32;;;;;;;11.98;3.97;;;;;;;;;;5030521;28;20524;-77
2024/02/04 12:11:59;;;;;;;8.30;3.25;;;;;;;;;;5046517;28;20076;-76
2024/02/04 12:14:25;;;;;;;9.43;3.45;;;;;;;;;;5035372;28;20085;-77
2024/02/04 12:16:54;;;;;;;10.80;4.00;;;;;;;;;;5047750;28;20029;-76
2024/02/04 12:19:20;;;;;;;10.27;3.90;;;;;;;;;;5046990;28;20159;-76
2024/02/04 12:21:47;;;;;;;10.18;3.42;;;;;;;;;;5033195;28;20033;-77
2024/02/04 12:24:13;;;;;;;15.32;4.03;;;;;;;;;;5023928;28;20025;-79
2024/02/04 12:26:41;;;;;;;11.40;3.88;;;;;;;;;;5036012;28;20039;-76
2024/02/04 12:29:08;;;;;;;19.17;5.13;;;;;;;;;;5021312;28;20029;-77
2024/02/04 12:31:34;;;;;;;9.32;3.90;;;;;;;;;;5032212;28;20033;-77
2024/02/04 12:34:01;;;;;;;6.22;3.30;;;;;;;;;;5050577;28;20021;-76
2024/02/04 12:36:27;;;;;;;11.68;3.88;;;;;;;;;;5039788;28;20476;-78
2024/02/04 12:39:01;;;;;;;13.63;3.75;;;;;;;;;;5033063;28;20032;-76
2024/02/04 12:41:29;;;;;;;8.35;4.50;;;;;;;;;;5044366;28;20037;-77
2024/02/04 12:43:56;;;;;;;12.50;4.78;;;;;;;;;;5043141;28;20032;-76
2024/02/04 12:46:24;;;;;;;8.38;3.80;;;;;;;;;;5045465;28;20025;-76
2024/02/04 12:48:57;;;;;;;10.07;3.83;;;;;;;;;;5024619;28;20032;-77
2024/02/04 12:51:27;;;;;;;10.45;3.90;;;;;;;;;;5043995;28;20056;-77
2024/02/04 12:54:09;;;;;;;20.63;4.07;;;;;;;;;;5040088;28;20514;-77
2024/02/04 12:56:49;;;;;;;11.23;4.05;;;;;;;;;;5032046;28;20420;-77
2024/02/04 12:59:25;;;;;;;18.05;4.22;;;;;;;;;;5030874;28;20071;-77
2024/02/04 13:01:53;;;;;;;17.75;4.75;;;;;;;;;;5034619;28;20032;-77
2024/02/04 13:04:19;;;;;;;11.85;4.13;;;;;;;;;;5048688;28;20099;-78
2024/02/04 13:06:45;;;;;;;10.10;3.42;;;;;;;;;;5013912;28;20053;-77
2024/02/04 13:09:11;;;;;;;10.27;3.90;;;;;;;;;;5034987;28;20029;-76
2024/02/04 13:11:38;;;;;;;14.75;4.22;;;;;;;;;;5023200;28;20500;-77
2024/02/04 13:14:04;;;;;;;11.10;3.83;;;;;;;;;;5044455;28;20044;-76
2024/02/04 13:16:30;;;;;;;19.75;4.53;;;;;;;;;;5037451;28;20151;-77
2024/02/04 13:18:56;;;;;;;8.43;3.63;;;;;;;;;;5017887;28;20621;-76
2024/02/04 13:21:23;;;;;;;6.63;3.78;;;;;;;;;;5041358;28;20424;-77
2024/02/04 13:23:51;;;;;;;8.18;3.53;;;;;;;;;;5040641;28;20032;-76
2024/02/04 13:26:18;;;;;;;8.98;4.22;;;;;;;;;;5014206;28;20032;-77
2024/02/04 13:28:44;;;;;;;12.10;3.20;;;;;;;;;;5044944;28;20027;-78
2024/02/04 13:31:11;;;;;;;17.10;4.10;;;;;;;;;;5018114;28;20480;-77
2024/02/04 13:33:41;;;;;;;18.58;5.10;;;;;;;;;;5033837;28;20026;-75
2024/02/04 13:36:10;;;;;;;16.17;4.55;;;;;;;;;;5045474;28;20017;-76
2024/02/04 13:39:00;;;;;;;12.40;3.60;;;;;;;;;;5047018;28;20055;-77
2024/02/04 13:41:27;;;;;;;10.23;4.53;;;;;;;;;;5050494;28;20041;-78
2024/02/04 13:43:56;;;;;;;22.40;4.40;;;;;;;;;;5045425;28;20017;-77
2024/02/04 13:46:23;;;;;;;11.73;4.18;;;;;;;;;;5027521;28;20026;-77
2024/02/04 13:48:52;;;;;;;10.93;3.10;;;;;;;;;;5041916;28;20041;-77
2024/02/04 13:51:19;;;;;;;16.40;4.38;;;;;;;;;;5046687;28;20036;-78
2024/02/04 13:53:46;;;;;;;13.52;4.43;;;;;;;;;;5036357;28;20033;-76
2024/02/04 13:56:12;;;;;;;14.02;4.82;;;;;;;;;;5033661;28;20024;-78
2024/02/04 13:58:46;;;;;;;14.25;3.65;;;;;;;;;;5020537;28;20187;-77
2024/02/04 14:01:20;;;;;;;14.23;4.25;;;;;;;;;;5034323;28;20478;-78
2024/02/04 14:03:47;;;;;;;18.55;5.55;;;;;;;;;;5031201;28;20107;-78
2024/02/04 14:06:19;;;;;;;13.73;4.35;;;;;;;;;;5048912;28;20320;-77
2024/02/04 14:08:49;;;;;;;13.70;4.72;;;;;;;;;;5046701;28;20072;-78
2024/02/04 14:11:15;;;;;;;11.73;4.40;;;;;;;;;;5045599;28;20388;-79
2024/02/04 14:13:42;;;;;;;16.15;4.40;;;;;;;;;;5050586;28;20098;-78
2024/02/04 14:16:11;;;;;;;14.00;4.70;;;;;;;;;;5041864;28;20033;-78
2024/02/04 14:18:46;;;;;;;11.77;4.72;;;;;;;;;;5050012;28;20021;-78
2024/02/04 14:21:14;;;;;;;17.40;4.50;;;;;;;;;;5040746;28;20143;-80
2024/02/04 14:23:47;;;;;;;17.50;5.07;;;;;;;;;;5044778;28;20056;-80
2024/02/04 14:26:17;;;;;;;15.63;4.82;;;;;;;;;;5047556;28;20072;-78
2024/02/04 14:28:46;;;;;;;24.77;5.00;;;;;;;;;;5051103;28;20041;-79
2024/02/04 14:31:19;;;;;;;19.02;4.57;;;;;;;;;;5041707;28;20032;-80
2024/02/04 14:33:52;;;;;;;15.40;3.78;;;;;;;;;;5035941;28;20029;-78
2024/02/04 14:36:27;;;;;;;14.77;4.32;;;;;;;;;;5039148;28;20097;-77
2024/02/04 14:39:01;;;;;;;10.00;3.60;;;;;;;;;;5043230;28;20031;-78
2024/02/04 14:41:28;;;;;;;8.07;4.53;;;;;;;;;;5053727;28;20057;-75
2024/02/04 14:43:54;;;;;;;24.60;5.10;;;;;;;;;;5040049;28;20025;-76